Time;durP1;ratioP1;P1;durP2;ratioP2;P2;SDS_P1;SDS_P2;PMS_P1;PMS_P2;Temp;Humidity;BMP_temperature;BMP_pressure;BME280_temperature;BME280_humidity;BME280_pressure;Samples;Min_cycle;Max_cycle;Signal;HPM_P1;HPM_P2
2022/09/14 00:01:30;;;;;;;;;1.67;1.00;;;;;22.92;56.85;99779.20;110402;1264;13108;-52
2022/09/14 00:03:57;;;;;;;;;1.00;1.00;;;;;22.92;56.88;99774.66;110229;1262;13057;-55
2022/09/14 00:06:24;;;;;;;;;2.00;2.00;;;;;22.92;56.79;99774.71;110332;1264;19805;-52
2022/09/14 00:08:52;;;;;;;;;2.00;2.00;;;;;22.92;56.82;99773.11;110428;1264;12952;-53
2022/09/14 00:11:19;;;;;;;;;1.33;1.33;;;;;22.93;56.79;99763.52;110473;1264;12644;-50
2022/09/14 00:13:46;;;;;;;;;2.00;2.00;;;;;22.92;56.76;99761.76;110443;1264;13154;-50
2022/09/14 00:16:14;;;;;;;;;1.50;1.50;;;;;22.91;56.76;99760.80;110520;1264;13214;-53
2022/09/14 00:18:41;;;;;;;;;2.00;1.00;;;;;22.92;56.73;99760.38;110418;1264;13132;-55
2022/09/14 00:21:08;;;;;;;;;2.00;2.00;;;;;22.91;56.70;99757.19;110351;1264;13032;-50
2022/09/14 00:23:36;;;;;;;;;2.00;1.67;;;;;22.91;56.73;99759.16;110327;1267;13170;-52
2022/09/14 00:26:03;;;;;;;;;1.00;1.00;;;;;22.92;56.69;99753.98;110355;1265;13255;-51
2022/09/14 00:28:30;;;;;;;;;2.00;2.00;;;;;22.92;56.62;99760.88;110357;1264;12967;-52
2022/09/14 00:30:57;;;;;;;;;2.00;2.00;;;;;22.91;56.67;99753.02;110305;1264;12777;-54
2022/09/14 00:33:25;;;;;;;;;2.00;2.00;;;;;22.91;56.65;99756.60;110374;1264;13091;-54
2022/09/14 00:35:52;;;;;;;;;2.00;2.00;;;;;22.92;56.61;99759.83;110383;1264;14504;-54
2022/09/14 00:38:19;;;;;;;;;2.00;2.00;;;;;22.91;56.62;99752.10;110379;1265;14389;-53
2022/09/14 00:40:46;;;;;;;;;2.00;2.00;;;;;22.91;56.67;99757.35;110361;1265;13765;-54
2022/09/14 00:43:14;;;;;;;;;1.00;1.00;;;;;22.92;56.62;99754.41;110403;1265;16860;-56
2022/09/14 00:45:42;;;;;;;;;1.33;1.33;;;;;22.91;56.60;99751.30;110389;1264;14380;-50
2022/09/14 00:48:09;;;;;;;;;2.00;2.00;;;;;22.91;56.56;99748.86;110403;1264;14590;-51
2022/09/14 00:50:36;;;;;;;;;2.00;2.00;;;;;22.91;56.63;99747.39;110341;1264;14413;-51
2022/09/14 00:53:04;;;;;;;;;1.50;1.50;;;;;22.91;56.55;99747.73;110436;1264;14017;-52
2022/09/14 00:55:31;;;;;;;;;3.00;2.00;;;;;22.91;56.57;99752.06;110386;1264;12636;-50
2022/09/14 00:57:59;;;;;;;;;1.50;1.50;;;;;22.91;56.54;99749.33;110374;1264;13641;-51
2022/09/14 01:00:26;;;;;;;;;1.67;1.67;;;;;22.91;56.59;99747.39;110383;1265;14910;-53
2022/09/14 01:02:53;;;;;;;;;2.00;2.00;;;;;22.92;56.56;99750.55;110423;1264;13839;-56
2022/09/14 01:05:21;;;;;;;;;2.00;2.00;;;;;22.90;56.59;99748.54;110444;1264;14677;-51
2022/09/14 01:07:48;;;;;;;;;2.00;2.00;;;;;22.91;56.57;99751.39;110384;1264;14767;-51
2022/09/14 01:10:16;;;;;;;;;1.00;1.00;;;;;22.92;56.53;99749.90;110391;1265;13068;-52
2022/09/14 01:12:43;;;;;;;;;2.00;2.00;;;;;22.91;56.58;99747.02;110447;1264;13105;-53
2022/09/14 01:15:11;;;;;;;;;2.00;2.00;;;;;22.91;56.54;99750.17;110399;1264;13764;-54
2022/09/14 01:17:38;;;;;;;;;2.00;2.00;;;;;22.91;56.51;99750.84;110384;1264;18270;-52
2022/09/14 01:20:05;;;;;;;;;1.00;1.00;;;;;22.91;56.54;99747.73;110356;1264;12993;-52
2022/09/14 01:22:33;;;;;;;;;2.00;2.00;;;;;22.91;56.50;99749.75;110429;1264;13203;-52
2022/09/14 01:25:00;;;;;;;;;2.00;2.00;;;;;22.91;56.49;99747.35;110374;1265;13459;-51
2022/09/14 01:27:28;;;;;;;;;1.50;1.50;;;;;22.91;56.47;99740.41;110376;1264;14016;-53
2022/09/14 01:29:55;;;;;;;;;2.00;2.00;;;;;22.91;56.46;99740.63;110386;1264;13982;-52
2022/09/14 01:32:22;;;;;;;;;2.00;2.00;;;;;22.90;56.57;99742.73;110374;1264;13129;-52
2022/09/14 01:34:49;;;;;;;;;2.00;2.00;;;;;22.90;56.52;99739.29;110347;1264;13897;-54
2022/09/14 01:37:17;;;;;;;;;3.00;2.00;;;;;22.90;56.47;99736.39;110394;1264;12666;-54
2022/09/14 01:39:44;;;;;;;;;2.00;2.00;;;;;22.90;56.50;99739.28;110347;1265;13996;-51
2022/09/14 01:42:12;;;;;;;;;1.33;1.33;;;;;22.90;56.52;99740.92;110423;1264;13843;-52
2022/09/14 01:44:39;;;;;;;;;2.00;2.00;;;;;22.91;56.44;99740.50;110206;1267;13252;-55
2022/09/14 01:47:06;;;;;;;;;2.00;2.00;;;;;22.92;56.45;99735.95;110343;1265;14477;-51
2022/09/14 01:49:33;;;;;;;;;2.00;2.00;;;;;22.91;56.42;99733.48;110426;1265;12745;-54
2022/09/14 01:52:01;;;;;;;;;2.00;2.00;;;;;22.91;56.45;99734.48;110400;1264;16452;-51
2022/09/14 01:54:28;;;;;;;;;2.00;2.00;;;;;22.91;56.45;99732.60;110422;1265;14683;-51
2022/09/14 01:56:56;;;;;;;;;2.00;2.00;;;;;22.91;56.52;99730.91;110453;1264;14950;-52
2022/09/14 01:59:23;;;;;;;;;1.67;1.67;;;;;22.91;56.45;99732.43;110402;1264;14645;-53
2022/09/14 02:01:50;;;;;;;;;2.00;2.00;;;;;22.91;56.43;99729.43;110349;1265;14374;-52
2022/09/14 02:04:18;;;;;;;;;2.00;2.00;;;;;22.91;56.41;99727.89;110418;1265;13020;-54
2022/09/14 02:06:46;;;;;;;;;2.00;2.00;;;;;22.91;56.43;99721.33;110458;1264;13487;-53
2022/09/14 02:09:13;;;;;;;;;2.00;2.00;;;;;22.91;56.46;99724.23;110407;1264;13489;-52
2022/09/14 02:11:40;;;;;;;;;2.00;2.00;;;;;22.91;56.44;99723.18;110370;1265;13063;-52
2022/09/14 02:14:08;;;;;;;;;3.00;2.00;;;;;22.91;56.45;99723.35;110389;1264;13217;-54
2022/09/14 02:16:35;;;;;;;;;2.00;2.00;;;;;22.90;56.44;99722.67;110513;1264;12972;-52
2022/09/14 02:19:02;;;;;;;;;2.00;2.00;;;;;22.91;56.40;99723.89;110431;1264;13771;-52
2022/09/14 02:21:29;;;;;;;;;2.00;2.00;;;;;22.91;56.41;99724.77;110367;1264;12936;-52
2022/09/14 02:23:57;;;;;;;;;5.00;3.00;;;;;22.92;56.39;99726.70;110425;1264;13412;-53
2022/09/14 02:26:24;;;;;;;;;2.00;2.00;;;;;22.92;56.31;99726.45;110371;1264;13637;-51
2022/09/14 02:28:54;;;;;;;;;2.00;2.00;;;;;22.92;56.38;99724.21;110372;1265;12717;-52
2022/09/14 02:31:22;;;;;;;;;2.00;2.00;;;;;22.92;56.36;99727.59;110408;1265;12878;-50
2022/09/14 02:33:49;;;;;;;;;2.00;2.00;;;;;22.92;56.37;99728.47;110371;1265;13418;-50
2022/09/14 02:36:16;;;;;;;;;1.00;1.00;;;;;22.92;56.40;99725.23;110376;1265;12979;-50
2022/09/14 02:38:44;;;;;;;;;2.00;2.00;;;;;22.91;56.43;99724.40;110441;1265;13127;-54
2022/09/14 02:41:11;;;;;;;;;2.00;2.00;;;;;22.90;56.41;99722.69;110334;1265;13313;-54
2022/09/14 02:43:38;;;;;;;;;4.33;2.00;;;;;22.91;56.36;99724.86;110404;1264;13217;-51
2022/09/14 02:46:05;;;;;;;;;2.00;2.00;;;;;22.91;56.35;99727.63;110351;1264;18226;-52
2022/09/14 02:48:33;;;;;;;;;2.33;2.00;;;;;22.91;56.40;99721.38;110404;1265;13400;-52
2022/09/14 02:51:00;;;;;;;;;3.00;2.00;;;;;22.91;56.35;99721.33;110341;1264;14481;-52
2022/09/14 02:53:27;;;;;;;;;2.00;2.00;;;;;22.91;56.30;99716.79;110353;1265;13431;-53
2022/09/14 02:55:54;;;;;;;;;2.00;2.00;;;;;22.91;56.28;99718.48;110363;1264;13270;-50
2022/09/14 02:58:22;;;;;;;;;2.00;2.00;;;;;22.89;56.33;99714.54;110343;1264;13173;-51
2022/09/14 03:00:49;;;;;;;;;2.67;2.00;;;;;22.89;56.34;99707.77;110385;1265;14020;-51
2022/09/14 03:03:16;;;;;;;;;2.00;2.00;;;;;22.89;56.28;99706.55;110373;1265;14400;-51
2022/09/14 03:05:43;;;;;;;;;2.00;2.00;;;;;22.89;56.37;99705.06;110394;1264;13795;-51
2022/09/14 03:08:11;;;;;;;;;2.00;2.00;;;;;22.88;56.34;99708.05;110375;1265;13604;-51
2022/09/14 03:10:38;;;;;;;;;2.00;2.00;;;;;22.89;56.28;99705.99;110386;1265;12109;-51
2022/09/14 03:13:05;;;;;;;;;2.00;2.00;;;;;22.89;56.32;99703.27;110365;1265;14336;-51
2022/09/14 03:15:32;;;;;;;;;2.33;2.00;;;;;22.89;56.29;99697.77;110349;1265;13112;-51
2022/09/14 03:18:00;;;;;;;;;1.00;1.00;;;;;22.90;56.31;99696.70;110371;1265;14637;-50
2022/09/14 03:20:27;;;;;;;;;2.00;2.00;;;;;22.89;56.32;99694.14;110357;1265;14907;-54
2022/09/14 03:22:54;;;;;;;;;2.00;2.00;;;;;22.88;56.28;99693.84;110375;1264;16779;-53
2022/09/14 03:25:22;;;;;;;;;2.00;2.00;;;;;22.89;56.29;99693.92;110457;1264;13186;-55
2022/09/14 03:27:50;;;;;;;;;3.00;2.67;;;;;22.88;56.28;99691.99;110430;1264;18860;-53
2022/09/14 03:30:17;;;;;;;;;2.00;2.00;;;;;22.89;56.27;99686.83;110383;1265;13406;-53
2022/09/14 03:32:44;;;;;;;;;5.00;3.00;;;;;22.89;56.24;99687.13;110394;1264;12783;-55
2022/09/14 03:35:12;;;;;;;;;3.00;2.67;;;;;22.88;56.23;99685.44;110310;1265;12981;-51
2022/09/14 03:37:39;;;;;;;;;2.00;2.00;;;;;22.90;56.28;99684.52;110383;1265;13082;-52
2022/09/14 03:40:06;;;;;;;;;2.33;2.00;;;;;22.89;56.24;99680.30;110288;1265;14847;-54
2022/09/14 03:42:33;;;;;;;;;2.00;2.00;;;;;22.88;56.14;99681.27;110273;1264;13067;-53
2022/09/14 03:45:01;;;;;;;;;2.67;2.67;;;;;22.89;56.19;99675.93;110212;1264;13410;-54
2022/09/14 03:47:28;;;;;;;;;2.00;2.00;;;;;22.89;56.15;99678.84;110366;1264;13063;-53
2022/09/14 03:49:55;;;;;;;;;2.00;2.00;;;;;22.88;56.19;99678.20;110468;1264;12859;-53
2022/09/14 03:52:23;;;;;;;;;2.00;2.00;;;;;22.88;56.20;99679.30;110433;1265;12536;-53
2022/09/14 03:54:50;;;;;;;;;2.50;2.50;;;;;22.88;56.19;99679.72;110434;1264;13096;-52
2022/09/14 03:57:18;;;;;;;;;2.00;2.00;;;;;22.87;56.18;99680.86;110410;1264;13466;-51
2022/09/14 03:59:45;;;;;;;;;2.00;2.00;;;;;22.88;56.17;99686.95;110407;1264;13230;-50
2022/09/14 04:02:12;;;;;;;;;5.00;3.00;;;;;22.88;56.18;99683.67;110445;1264;13085;-51
2022/09/14 04:04:39;;;;;;;;;2.00;2.00;;;;;22.88;56.13;99680.73;110478;1264;13272;-51
2022/09/14 04:07:07;;;;;;;;;2.00;2.00;;;;;22.88;56.13;99680.35;110395;1264;13101;-50
2022/09/14 04:09:34;;;;;;;;;1.67;1.67;;;;;22.87;56.09;99676.89;110361;1264;13283;-51
2022/09/14 04:12:02;;;;;;;;;2.67;2.67;;;;;22.87;56.16;99681.98;110374;1264;12819;-51
2022/09/14 04:14:29;;;;;;;;;3.00;2.67;;;;;22.86;56.11;99682.06;110427;1264;13290;-53
2022/09/14 04:16:56;;;;;;;;;1.00;1.00;;;;;22.86;56.12;99677.39;110424;1265;12621;-50
2022/09/14 04:19:23;;;;;;;;;2.00;2.00;;;;;22.86;56.13;99673.15;110462;1264;13003;-52
2022/09/14 04:21:51;;;;;;;;;3.00;3.00;;;;;22.87;56.08;99675.97;110432;1264;13063;-52
2022/09/14 04:24:18;;;;;;;;;1.67;1.67;;;;;22.87;56.11;99683.42;110455;1264;13602;-51
2022/09/14 04:26:45;;;;;;;;;2.00;2.00;;;;;22.87;56.08;99670.73;110437;1265;13180;-53
2022/09/14 04:29:13;;;;;;;;;3.00;3.00;;;;;22.86;56.09;99671.67;110456;1264;13846;-52
2022/09/14 04:31:40;;;;;;;;;2.50;2.00;;;;;22.86;56.17;99667.69;110494;1264;13000;-51
2022/09/14 04:34:08;;;;;;;;;2.00;2.00;;;;;22.86;56.10;99673.23;110436;1264;12622;-50
2022/09/14 04:36:35;;;;;;;;;2.00;2.00;;;;;22.86;56.14;99675.59;110362;1264;13194;-52
2022/09/14 04:39:02;;;;;;;;;2.00;2.00;;;;;22.85;56.14;99677.14;110407;1264;12967;-51
2022/09/14 04:41:29;;;;;;;;;2.00;2.00;;;;;22.84;56.15;99670.52;110408;1264;13030;-52
2022/09/14 04:43:57;;;;;;;;;2.00;2.00;;;;;22.84;56.12;99668.32;110407;1265;13136;-51
2022/09/14 04:46:24;;;;;;;;;2.00;2.00;;;;;22.84;56.00;99673.95;110457;1264;12640;-51
2022/09/14 04:48:51;;;;;;;;;1.00;1.00;;;;;22.85;56.11;99673.86;110459;1265;12620;-50
2022/09/14 04:51:18;;;;;;;;;2.00;2.00;;;;;22.88;56.33;99677.15;110319;1267;12856;-50
2022/09/14 04:53:46;;;;;;;;;2.00;2.00;;;;;22.93;56.88;99673.10;110401;1265;12789;-50
2022/09/14 04:56:13;;;;;;;;;2.00;2.00;;;;;22.97;57.20;99674.98;110330;1264;12985;-49
2022/09/14 04:58:41;;;;;;;;;2.67;2.33;;;;;22.97;57.25;99675.90;110312;1264;12916;-53
2022/09/14 05:01:08;;;;;;;;;1.67;1.67;;;;;22.95;57.42;99678.39;110335;1264;13122;-51
2022/09/14 05:03:35;;;;;;;;;2.00;2.00;;;;;22.95;57.42;99680.02;110313;1264;13229;-51
2022/09/14 05:06:02;;;;;;;;;2.33;2.00;;;;;22.93;57.48;99674.56;110367;1264;12966;-52
2022/09/14 05:08:30;;;;;;;;;3.00;3.00;;;;;22.94;57.50;99675.55;110410;1264;14393;-50
2022/09/14 05:10:57;;;;;;;;;3.00;2.00;;;;;22.95;57.41;99677.05;110312;1264;13161;-51
2022/09/14 05:13:25;;;;;;;;;2.00;2.00;;;;;22.94;57.45;99678.25;110391;1265;13064;-50
2022/09/14 05:15:53;;;;;;;;;2.33;2.33;;;;;22.93;57.43;99678.39;110397;1264;13276;-54
2022/09/14 05:18:20;;;;;;;;;3.00;2.00;;;;;22.93;57.47;99682.92;109589;1264;1059405;-52
2022/09/14 05:20:47;;;;;;;;;7.00;6.00;;;;;22.95;57.43;99684.95;110403;1265;12000;-51
2022/09/14 05:23:15;;;;;;;;;27.00;22.00;;;;;22.93;57.36;99687.23;110351;1265;13648;-50
2022/09/14 05:25:42;;;;;;;;;71.33;56.00;;;;;22.83;57.41;99689.08;110387;1264;13207;-50
2022/09/14 05:28:09;;;;;;;;;59.00;46.00;;;;;22.78;57.63;99687.46;110366;1264;12941;-52
2022/09/14 05:30:38;;;;;;;;;50.33;44.00;;;;;22.79;57.74;99688.98;110382;1265;14319;-52
2022/09/14 05:33:05;;;;;;;;;47.33;41.00;;;;;22.79;57.90;99693.09;110358;1264;16880;-50
2022/09/14 05:35:32;;;;;;;;;32.00;30.50;;;;;22.88;57.75;99695.36;110337;1264;13549;-53
2022/09/14 05:38:00;;;;;;;;;28.67;27.00;;;;;22.93;57.53;99696.15;110381;1264;14224;-52
2022/09/14 05:40:27;;;;;;;;;27.00;24.00;;;;;22.94;57.67;99696.81;110427;1264;13520;-50
2022/09/14 05:42:54;;;;;;;;;22.00;21.50;;;;;22.98;57.77;99698.27;110200;1265;14660;-53
2022/09/14 05:45:22;;;;;;;;;19.00;18.67;;;;;23.00;57.69;99696.61;110340;1264;13568;-55
2022/09/14 05:47:49;;;;;;;;;16.67;16.00;;;;;22.99;57.59;99701.36;110304;1265;15356;-49
2022/09/14 05:50:16;;;;;;;;;16.00;15.00;;;;;23.01;57.48;99697.16;110316;1265;14490;-52
2022/09/14 05:52:43;;;;;;;;;17.00;17.00;;;;;23.02;57.38;99690.10;110402;1265;13143;-54
2022/09/14 05:55:11;;;;;;;;;16.67;14.67;;;;;23.02;57.36;99692.88;110330;1265;14264;-52
2022/09/14 05:57:38;;;;;;;;;12.00;12.00;;;;;23.05;57.46;99696.48;110380;1264;14464;-53
2022/09/14 06:00:06;;;;;;;;;15.00;13.00;;;;;22.92;57.60;99698.23;110278;1264;14475;-50
2022/09/14 06:02:34;;;;;;;;;15.33;14.67;;;;;22.80;57.39;99701.16;110387;1265;14628;-52
2022/09/14 06:05:01;;;;;;;;;12.33;11.33;;;;;22.72;57.22;99704.88;110348;1264;13316;-50
2022/09/14 06:07:28;;;;;;;;;15.67;13.33;;;;;22.67;57.09;99698.71;110344;1264;13134;-52
2022/09/14 06:09:56;;;;;;;;;11.00;11.00;;;;;22.63;56.86;99702.13;110387;1265;14544;-53
2022/09/14 06:12:25;;;;;;;;;15.00;13.33;;;;;22.61;56.69;99700.27;110328;1264;14766;-54
2022/09/14 06:14:53;;;;;;;;;12.00;11.00;;;;;22.58;56.47;99697.85;110343;1265;19090;-54
2022/09/14 06:17:20;;;;;;;;;17.00;13.00;;;;;22.53;56.47;99700.73;110311;1267;15006;-51
2022/09/14 06:19:47;;;;;;;;;14.33;13.33;;;;;22.51;56.33;99696.61;110364;1264;13170;-51
2022/09/14 06:22:14;;;;;;;;;12.00;11.50;;;;;22.53;56.13;99700.19;110320;1264;15134;-49
2022/09/14 06:24:42;;;;;;;;;10.00;10.00;;;;;22.53;56.05;99702.92;110386;1264;13946;-54
2022/09/14 06:27:09;;;;;;;;;10.33;10.33;;;;;22.54;55.98;99707.80;110308;1264;14049;-50
2022/09/14 06:29:36;;;;;;;;;11.00;11.00;;;;;22.52;55.89;99706.14;110371;1264;13956;-49
2022/09/14 06:32:04;;;;;;;;;12.00;11.67;;;;;22.53;55.76;99705.65;110377;1265;13669;-53
2022/09/14 06:34:31;;;;;;;;;11.33;11.33;;;;;22.54;55.75;99706.66;110419;1265;13325;-55
2022/09/14 06:36:58;;;;;;;;;11.67;10.67;;;;;22.54;55.69;99711.79;110309;1264;14252;-51
2022/09/14 06:39:26;;;;;;;;;10.50;10.00;;;;;22.55;55.57;99714.46;110343;1264;13913;-51
2022/09/14 06:41:53;;;;;;;;;11.00;10.00;;;;;22.58;55.48;99717.35;110345;1264;13445;-51
2022/09/14 06:44:20;;;;;;;;;8.00;8.00;;;;;22.60;55.33;99715.46;110386;1264;13206;-50
2022/09/14 06:46:47;;;;;;;;;10.00;10.00;;;;;22.63;55.45;99716.38;110272;1265;13092;-52
2022/09/14 06:49:19;;;;;;;;;9.33;8.67;;;;;22.78;55.49;99717.30;110344;1264;13260;-52
2022/09/14 06:51:46;;;;;;;;;6.33;6.33;;;;;22.90;55.57;99720.36;110322;1264;13055;-52
2022/09/14 06:54:14;;;;;;;;;7.00;7.00;;;;;23.00;55.84;99719.83;110376;1264;14992;-52
2022/09/14 06:56:41;;;;;;;;;9.33;7.33;;;;;23.05;55.87;99726.55;110326;1265;14736;-53
2022/09/14 06:59:08;;;;;;;;;11.00;10.00;;;;;22.98;55.99;99723.83;110271;1265;14847;-54
2022/09/14 07:01:36;;;;;;;;;8.67;8.67;;;;;22.92;56.14;99729.89;110391;1264;13166;-54
2022/09/14 07:04:03;;;;;;;;;7.00;6.33;;;;;22.88;56.41;99727.77;110369;1264;13802;-54
2022/09/14 07:06:31;;;;;;;;;8.67;7.67;;;;;22.93;57.17;99730.15;110280;1264;13738;-51
2022/09/14 07:08:58;;;;;;;;;88.33;67.33;;;;;23.07;57.52;99732.81;110299;1264;14185;-51
2022/09/14 07:11:26;;;;;;;;;133.33;96.00;;;;;23.14;57.67;99728.42;110323;1264;14717;-52
2022/09/14 07:13:53;;;;;;;;;153.33;114.67;;;;;23.21;57.67;99729.11;110356;1264;10488;-52
2022/09/14 07:16:21;;;;;;;;;93.33;68.67;;;;;23.27;57.39;99728.00;110373;1264;13197;-51
2022/09/14 07:18:48;;;;;;;;;78.00;56.00;;;;;23.31;57.44;99726.88;110378;1264;14761;-53
2022/09/14 07:21:15;;;;;;;;;66.67;47.00;;;;;23.30;57.47;99727.46;110379;1265;14527;-52
2022/09/14 07:23:42;;;;;;;;;61.33;45.33;;;;;23.28;57.49;99728.19;110316;1264;14515;-52
2022/09/14 07:26:10;;;;;;;;;53.00;40.50;;;;;23.28;57.51;99730.17;110367;1265;16820;-51
2022/09/14 07:28:37;;;;;;;;;48.33;39.00;;;;;23.26;57.50;99734.77;110413;1264;13231;-52
2022/09/14 07:31:05;;;;;;;;;42.33;35.00;;;;;23.27;57.56;99732.28;110329;1264;13784;-51
2022/09/14 07:33:32;;;;;;;;;38.33;33.33;;;;;23.29;57.65;99732.95;110388;1264;15638;-52
2022/09/14 07:35:59;;;;;;;;;33.67;28.67;;;;;23.29;57.53;99738.21;110442;1264;18213;-52
2022/09/14 07:38:27;;;;;;;;;25.67;22.67;;;;;23.20;57.30;99741.47;110188;1265;19489;-50
2022/09/14 07:40:54;;;;;;;;;17.33;16.33;;;;;23.11;57.04;99739.36;110273;1264;11372;-51
2022/09/14 07:43:21;;;;;;;;;15.67;14.33;;;;;23.02;56.58;99739.73;110378;1265;18354;-50
2022/09/14 07:45:48;;;;;;;;;12.00;12.00;;;;;22.94;56.36;99739.35;110345;1268;13589;-50
2022/09/14 07:48:16;;;;;;;;;12.67;11.33;;;;;22.83;56.04;99741.04;110384;1264;13136;-50
2022/09/14 07:50:43;;;;;;;;;12.33;11.00;;;;;22.76;56.04;99744.95;110395;1264;13332;-49
2022/09/14 07:53:10;;;;;;;;;13.00;11.00;;;;;22.76;55.99;99739.84;110365;1265;13175;-51
2022/09/14 07:55:37;;;;;;;;;14.00;12.67;;;;;22.79;55.79;99738.44;110361;1267;18317;-52
2022/09/14 07:58:05;;;;;;;;;17.00;12.00;;;;;22.88;55.46;99737.80;110355;1264;13795;-51
2022/09/14 08:00:32;;;;;;;;;17.00;12.00;;;;;22.97;55.45;99743.09;110373;1264;17293;-52
2022/09/14 08:02:59;;;;;;;;;11.33;10.33;;;;;23.11;55.07;99739.25;110203;1265;12911;-50
2022/09/14 08:05:27;;;;;;;;;11.00;10.00;;;;;23.07;54.77;99736.52;110395;1263;13108;-52
2022/09/14 08:07:55;;;;;;;;;11.00;9.00;;;;;22.92;54.84;99739.10;110429;1264;12990;-53
2022/09/14 08:10:22;;;;;;;;;7.00;7.00;;;;;22.84;54.94;99738.90;110167;1264;12897;-57
2022/09/14 08:12:49;;;;;;;;;6.33;6.33;;;;;22.80;54.87;99737.30;110311;1264;13102;-52
2022/09/14 08:15:17;;;;;;;;;6.67;6.67;;;;;22.68;54.81;99740.15;110330;1265;13101;-52
2022/09/14 08:17:44;;;;;;;;;6.00;6.00;;;;;22.58;54.74;99734.29;110315;1265;14431;-52
2022/09/14 08:20:11;;;;;;;;;6.00;6.00;;;;;22.38;54.99;99735.79;110352;1265;13382;-52
2022/09/14 08:22:39;;;;;;;;;6.33;6.33;;;;;22.45;54.81;99735.86;110287;1264;13223;-51
2022/09/14 08:25:06;;;;;;;;;5.67;5.67;;;;;22.45;54.71;99733.93;110338;1264;14056;-53
2022/09/14 08:27:33;;;;;;;;;5.00;5.00;;;;;22.52;54.73;99728.08;110348;1265;13737;-51
2022/09/14 08:30:00;;;;;;;;;5.00;5.00;;;;;22.56;54.44;99730.98;110398;1265;13621;-51
2022/09/14 08:32:28;;;;;;;;;5.33;5.00;;;;;22.61;54.43;99733.45;110309;1265;14807;-52
2022/09/14 08:34:55;;;;;;;;;7.50;6.00;;;;;22.62;54.55;99731.84;110388;1264;13216;-52
2022/09/14 08:37:22;;;;;;;;;6.33;6.00;;;;;22.66;54.60;99728.51;110220;1265;14383;-51
2022/09/14 08:39:50;;;;;;;;;6.00;6.00;;;;;22.71;55.26;99731.23;110271;1264;14643;-52
2022/09/14 08:42:17;;;;;;;;;6.00;6.00;;;;;22.72;57.50;99728.16;110335;1264;14043;-52
2022/09/14 08:44:44;;;;;;;;;5.33;5.00;;;;;22.77;56.71;99727.52;110313;1265;14831;-56
2022/09/14 08:47:11;;;;;;;;;5.00;3.00;;;;;22.77;55.27;99723.52;110399;1264;14475;-53
2022/09/14 08:49:39;;;;;;;;;6.00;6.00;;;;;22.73;54.53;99721.10;110432;1264;13069;-51
2022/09/14 08:52:06;;;;;;;;;7.00;6.00;;;;;22.71;53.93;99721.56;110394;1265;14933;-52
2022/09/14 08:54:34;;;;;;;;;5.00;4.33;;;;;22.70;53.59;99721.39;110363;1264;14670;-53
2022/09/14 08:57:01;;;;;;;;;5.00;5.00;;;;;22.72;53.30;99725.44;110350;1265;14064;-51
2022/09/14 08:59:28;;;;;;;;;6.67;6.00;;;;;22.73;52.91;99727.66;110253;1264;13754;-52
2022/09/14 09:01:55;;;;;;;;;3.00;3.00;;;;;22.63;52.62;99726.34;110255;1264;13990;-50
2022/09/14 09:04:23;;;;;;;;;5.00;5.00;;;;;22.57;52.37;99728.98;110266;1265;14116;-49
2022/09/14 09:06:50;;;;;;;;;5.33;5.33;;;;;22.51;52.29;99729.80;110185;1264;13993;-54
2022/09/14 09:09:17;;;;;;;;;5.00;5.00;;;;;22.48;51.93;99729.89;110168;1264;13770;-55
2022/09/14 09:11:45;;;;;;;;;6.00;5.00;;;;;22.44;51.68;99724.33;110315;1264;13397;-50
2022/09/14 09:14:12;;;;;;;;;3.00;3.00;;;;;22.39;51.44;99721.08;110346;1265;13173;-52
2022/09/14 09:16:39;;;;;;;;;3.00;3.00;;;;;22.41;51.18;99715.70;110376;1265;13260;-51
2022/09/14 09:19:07;;;;;;;;;6.00;3.00;;;;;22.48;50.90;99720.45;110365;1265;13671;-52
2022/09/14 09:21:34;;;;;;;;;3.00;3.00;;;;;22.42;51.13;99717.94;110373;1264;13278;-52
2022/09/14 09:24:01;;;;;;;;;5.00;5.00;;;;;22.47;50.87;99716.79;110344;1265;13424;-51
2022/09/14 09:26:28;;;;;;;;;3.00;3.00;;;;;22.46;50.78;99717.63;110441;1264;13193;-53
2022/09/14 09:28:56;;;;;;;;;2.00;2.00;;;;;22.47;50.59;99713.14;110379;1264;12959;-53
2022/09/14 09:31:23;;;;;;;;;5.00;5.00;;;;;22.46;50.38;99713.59;110316;1265;13203;-50
2022/09/14 09:33:50;;;;;;;;;2.67;2.67;;;;;22.43;50.21;99715.96;110322;1265;13213;-55
2022/09/14 09:36:18;;;;;;;;;5.00;5.00;;;;;22.36;50.05;99714.84;110367;1264;12447;-55
2022/09/14 09:38:46;;;;;;;;;2.33;2.33;;;;;22.15;50.34;99714.14;110307;1264;12939;-55
2022/09/14 09:41:13;;;;;;;;;3.00;3.00;;;;;22.18;50.28;99716.58;110392;1264;12856;-54
2022/09/14 09:43:40;;;;;;;;;3.00;3.00;;;;;22.22;50.29;99717.45;110443;1265;13238;-53
2022/09/14 09:46:08;;;;;;;;;3.00;3.00;;;;;22.20;50.40;99714.98;110378;1264;12934;-53
2022/09/14 09:48:35;;;;;;;;;4.00;4.00;;;;;22.21;50.29;99717.02;110425;1265;13316;-56
2022/09/14 09:51:02;;;;;;;;;3.00;3.00;;;;;22.19;50.27;99713.05;110385;1264;13084;-54
2022/09/14 09:53:30;;;;;;;;;3.00;3.00;;;;;22.18;50.18;99716.91;110466;1264;12921;-51
2022/09/14 09:55:57;;;;;;;;;2.67;2.67;;;;;22.20;50.04;99715.31;110450;1264;13190;-52
2022/09/14 09:58:24;;;;;;;;;3.00;3.00;;;;;22.24;50.11;99718.25;110363;1265;12892;-52
2022/09/14 10:00:51;;;;;;;;;3.00;2.00;;;;;22.27;50.17;99717.91;110354;1264;13160;-56
2022/09/14 10:03:19;;;;;;;;;3.00;2.00;;;;;22.27;50.38;99719.00;110355;1265;13607;-54
2022/09/14 10:05:46;;;;;;;;;2.00;2.00;;;;;22.26;50.33;99718.75;110349;1264;12612;-52
2022/09/14 10:08:19;;;;;;;;;5.33;3.00;;;;;22.23;50.47;99721.02;110241;1264;13152;-38
2022/09/14 10:10:47;;;;;;;;;3.00;3.00;;;;;22.22;50.81;99714.01;110592;1252;61491;-90
2022/09/14 10:13:14;;;;;;;;;3.00;2.00;;;;;22.22;50.95;99721.86;110662;1265;13026;-91
2022/09/14 10:21:30;;;;;;;;;2.50;2.50;;;;;22.13;50.04;99730.89;110953;1267;13161;-86
2022/09/14 10:23:57;;;;;;;;;3.00;2.00;;;;;22.16;49.65;99731.90;110703;1266;13569;-87
2022/09/14 10:26:24;;;;;;;;;3.00;3.00;;;;;22.24;49.35;99731.60;110933;1267;12735;-88
2022/09/14 10:28:52;;;;;;;;;3.00;3.00;;;;;22.21;49.26;99737.61;110952;1267;12952;-89
2022/09/14 10:31:19;;;;;;;;;3.00;3.00;;;;;22.17;49.30;99737.83;110991;1266;13927;-90
2022/09/14 10:33:47;;;;;;;;;2.00;2.00;;;;;22.12;49.58;99733.75;110882;1265;16680;-90
2022/09/14 10:36:14;;;;;;;;;2.33;2.33;;;;;21.99;49.30;99731.56;110899;1267;13026;-86
2022/09/14 10:38:42;;;;;;;;;2.00;2.00;;;;;21.97;49.21;99727.58;110701;1267;13126;-88
2022/09/14 10:41:10;;;;;;;;;3.67;2.67;;;;;21.99;48.84;99734.76;110543;1267;12259;-88
2022/09/14 10:43:38;;;;;;;;;2.00;2.00;;;;;21.99;48.66;99728.01;110924;1266;12793;-87
2022/09/14 10:46:06;;;;;;;;;2.67;2.33;;;;;22.02;48.42;99729.98;110811;1265;16692;-87
2022/09/14 10:48:33;;;;;;;;;3.00;3.00;;;;;22.01;48.46;99731.44;110962;1267;17812;-87
2022/09/14 10:51:01;;;;;;;;;3.00;3.00;;;;;22.01;48.46;99726.49;110988;1266;13964;-86
2022/09/14 10:53:28;;;;;;;;;3.00;3.00;;;;;22.02;48.38;99724.27;110947;1267;17392;-88
2022/09/14 10:55:59;;;;;;;;;2.00;2.00;;;;;21.98;48.26;99721.83;110962;1266;13181;-86
2022/09/14 10:58:26;;;;;;;;;3.67;3.67;;;;;22.01;48.33;99721.00;110914;1267;13061;-88
2022/09/14 11:00:54;;;;;;;;;3.00;3.00;;;;;22.05;48.20;99720.23;110882;1267;13194;-87
2022/09/14 11:03:21;;;;;;;;;2.00;2.00;;;;;22.07;48.07;99718.69;110835;1266;12612;-84
2022/09/14 11:05:48;;;;;;;;;3.00;3.00;;;;;22.07;48.10;99722.67;110840;1267;12604;-87
2022/09/14 11:08:19;;;;;;;;;5.00;5.00;;;;;22.10;48.04;99725.25;110901;1267;13002;-85
2022/09/14 11:10:46;;;;;;;;;3.00;2.00;;;;;22.10;47.98;99725.13;110963;1266;16756;-86
2022/09/14 11:13:13;;;;;;;;;2.00;2.00;;;;;22.12;48.05;99726.83;110837;1267;13138;-86
2022/09/14 11:15:41;;;;;;;;;2.33;2.33;;;;;22.16;48.05;99725.56;110913;1267;13030;-83
2022/09/14 11:18:08;;;;;;;;;3.00;3.00;;;;;22.20;48.48;99723.59;110878;1265;13173;-86
2022/09/14 11:20:36;;;;;;;;;2.00;2.00;;;;;22.24;48.52;99722.11;110895;1267;12738;-85
2022/09/14 11:23:03;;;;;;;;;5.00;3.00;;;;;22.26;48.60;99721.36;110931;1267;12977;-86
2022/09/14 11:25:32;;;;;;;;;3.67;3.00;;;;;22.23;48.55;99715.27;110799;1265;13219;-86
2022/09/14 11:27:59;;;;;;;;;3.67;3.00;;;;;22.25;48.69;99712.04;110879;1267;13237;-86